PWSweather.com
Personal Weather Stations
Station Observations
270882
Flassian, LimouxFR 11300

FlassianLimouxFR 11300

Lat: 43.071798, Lon: 2.217292

Elevation: 165

Station Type: Oregon WMR 200

http://www.meteolimoux.fr

High Low Average
Temperature 74.7°F23.7°C 46.9°F8.3°C 59.5°F15.3°C
Dew Point 56.7°F13.7°C 42.4°F5.8°C 47.2°F8.4°C
Winds 7.6 mph 12.2 kmh Calm Calm 2.0 mph SE3.2 kmh SE
Wind Gusts 14.8 mph23.8 kmh -- 4.0 mph6.4 kmh
Humidity 88% 41% 66%
Pressure 30.19 in1022.4 mb 30.10 in1019.3 mb -
Precipitation 0.00 in0.0 mm - -
Hour Temp Dew Point Humidity Winds Wind Gusts Pressure Precip Precip Rate Daily Precip Total
12:02 AM 51.6°F10.9°C 44.6°F7.0°C 77% Calm Calm -- 30.16 in1021.3 mb - 0.00 in0.0 mm 0.00 in0.0 mm
12:07 AM 51.4°F10.8°C 44.4°F6.9°C 77% Calm Calm -- 30.16 in1021.3 mb - 0.00 in0.0 mm 0.00 in0.0 mm
12:12 AM 51.4°F10.8°C 44.8°F7.1°C 78% Calm Calm -- 30.16 in1021.3 mb - 0.00 in0.0 mm 0.00 in0.0 mm
12:17 AM 51.3°F10.7°C 44.6°F7.0°C 78% Calm Calm -- 30.16 in1021.3 mb - 0.00 in0.0 mm 0.00 in0.0 mm
12:22 AM 51.1°F10.6°C 44.4°F6.9°C 78% Calm Calm -- 30.16 in1021.3 mb - 0.00 in0.0 mm 0.00 in0.0 mm
12:27 AM 51.1°F10.6°C 44.4°F6.9°C 78% Calm Calm -- 30.16 in1021.3 mb - 0.00 in0.0 mm 0.00 in0.0 mm
12:32 AM 50.9°F10.5°C 44.2°F6.8°C 78% Calm Calm -- 30.16 in1021.3 mb - 0.00 in0.0 mm 0.00 in0.0 mm
12:37 AM 50.9°F10.5°C 44.2°F6.8°C 78% Calm Calm -- 30.16 in1021.3 mb - 0.00 in0.0 mm 0.00 in0.0 mm
12:42 AM 50.7°F10.4°C 44.1°F6.7°C 78% Calm Calm -- 30.13 in1020.3 mb - 0.00 in0.0 mm 0.00 in0.0 mm
12:47 AM 50.5°F10.3°C 44.2°F6.8°C 79% Calm Calm -- 30.13 in1020.3 mb - 0.00 in0.0 mm 0.00 in0.0 mm
12:52 AM 50.5°F10.3°C 44.2°F6.8°C 79% Calm Calm -- 30.13 in1020.3 mb - 0.00 in0.0 mm 0.00 in0.0 mm
12:57 AM 50.4°F10.2°C 44.1°F6.7°C 79% Calm Calm -- 30.13 in1020.3 mb - 0.00 in0.0 mm 0.00 in0.0 mm
01:02 AM 50.2°F10.1°C 43.9°F6.6°C 79% Calm Calm -- 30.13 in1020.3 mb - 0.00 in0.0 mm 0.00 in0.0 mm
01:07 AM 50.2°F10.1°C 43.9°F6.6°C 79% Calm Calm -- 30.13 in1020.3 mb - 0.00 in0.0 mm 0.00 in0.0 mm
01:12 AM 50.0°F10.0°C 43.7°F6.5°C 79% Calm Calm -- 30.16 in1021.3 mb - 0.00 in0.0 mm 0.00 in0.0 mm
01:17 AM 50.0°F10.0°C 43.7°F6.5°C 79% Calm Calm -- 30.16 in1021.3 mb - 0.00 in0.0 mm 0.00 in0.0 mm
01:22 AM 50.0°F10.0°C 43.7°F6.5°C 79% Calm Calm -- 30.16 in1021.3 mb - 0.00 in0.0 mm 0.00 in0.0 mm
01:27 AM 50.0°F10.0°C 43.7°F6.5°C 79% Calm Calm -- 30.16 in1021.3 mb - 0.00 in0.0 mm 0.00 in0.0 mm
01:32 AM 49.8°F9.9°C 43.9°F6.6°C 80% Calm Calm -- 30.16 in1021.3 mb - 0.00 in0.0 mm 0.00 in0.0 mm
01:37 AM 49.8°F9.9°C 43.9°F6.6°C 80% Calm Calm -- 30.16 in1021.3 mb - 0.00 in0.0 mm 0.00 in0.0 mm
01:42 AM 49.8°F9.9°C 43.9°F6.6°C 80% Calm Calm -- 30.16 in1021.3 mb - 0.00 in0.0 mm 0.00 in0.0 mm
01:47 AM 49.6°F9.8°C 43.7°F6.5°C 80% Calm Calm -- 30.16 in1021.3 mb - 0.00 in0.0 mm 0.00 in0.0 mm
01:52 AM 49.6°F9.8°C 43.7°F6.5°C 80% Calm Calm -- 30.16 in1021.3 mb - 0.00 in0.0 mm 0.00 in0.0 mm
01:57 AM 49.5°F9.7°C 43.5°F6.4°C 80% Calm Calm -- 30.16 in1021.3 mb - 0.00 in0.0 mm 0.00 in0.0 mm
02:02 AM 49.3°F9.6°C 43.3°F6.3°C 80% Calm Calm -- 30.16 in1021.3 mb - 0.00 in0.0 mm 0.00 in0.0 mm
02:07 AM 49.3°F9.6°C 43.3°F6.3°C 80% Calm Calm -- 30.16 in1021.3 mb - 0.00 in0.0 mm 0.00 in0.0 mm
02:12 AM 49.3°F9.6°C 43.3°F6.3°C 80% Calm Calm -- 30.13 in1020.3 mb - 0.00 in0.0 mm 0.00 in0.0 mm
02:17 AM 49.3°F9.6°C 43.3°F6.3°C 80% Calm Calm -- 30.13 in1020.3 mb - 0.00 in0.0 mm 0.00 in0.0 mm
02:22 AM 49.3°F9.6°C 43.3°F6.3°C 80% Calm Calm -- 30.13 in1020.3 mb - 0.00 in0.0 mm 0.00 in0.0 mm
02:27 AM 49.3°F9.6°C 43.7°F6.5°C 81% Calm Calm -- 30.19 in1022.4 mb - 0.00 in0.0 mm 0.00 in0.0 mm
02:32 AM 49.5°F9.7°C 43.9°F6.6°C 81% Calm Calm -- 30.19 in1022.4 mb - 0.00 in0.0 mm 0.00 in0.0 mm
02:37 AM 49.5°F9.7°C 43.9°F6.6°C 81% Calm Calm -- 30.19 in1022.4 mb - 0.00 in0.0 mm 0.00 in0.0 mm
02:42 AM 49.5°F9.7°C 43.9°F6.6°C 81% Calm Calm -- 30.16 in1021.3 mb - 0.00 in0.0 mm 0.00 in0.0 mm
02:47 AM 49.5°F9.7°C 43.9°F6.6°C 81% Calm Calm -- 30.16 in1021.3 mb - 0.00 in0.0 mm 0.00 in0.0 mm
02:52 AM 49.5°F9.7°C 44.2°F6.8°C 82% Calm Calm -- 30.16 in1021.3 mb - 0.00 in0.0 mm 0.00 in0.0 mm
02:57 AM 49.5°F9.7°C 44.2°F6.8°C 82% Calm Calm -- 30.16 in1021.3 mb - 0.00 in0.0 mm 0.00 in0.0 mm
03:02 AM 49.5°F9.7°C 44.2°F6.8°C 82% Calm Calm -- 30.16 in1021.3 mb - 0.00 in0.0 mm 0.00 in0.0 mm
03:07 AM 49.3°F9.6°C 44.1°F6.7°C 82% Calm Calm -- 30.16 in1021.3 mb - 0.00 in0.0 mm 0.00 in0.0 mm
03:12 AM 49.3°F9.6°C 44.1°F6.7°C 82% Calm Calm -- 30.16 in1021.3 mb - 0.00 in0.0 mm 0.00 in0.0 mm
03:17 AM 49.1°F9.5°C 43.9°F6.6°C 82% Calm Calm -- 30.16 in1021.3 mb - 0.00 in0.0 mm 0.00 in0.0 mm
03:22 AM 49.1°F9.5°C 43.9°F6.6°C 82% Calm Calm -- 30.16 in1021.3 mb - 0.00 in0.0 mm 0.00 in0.0 mm
03:27 AM 48.9°F9.4°C 43.7°F6.5°C 82% Calm Calm -- 30.16 in1021.3 mb - 0.00 in0.0 mm 0.00 in0.0 mm
03:32 AM 48.9°F9.4°C 43.7°F6.5°C 82% Calm Calm -- 30.16 in1021.3 mb - 0.00 in0.0 mm 0.00 in0.0 mm
03:37 AM 48.7°F9.3°C 43.5°F6.4°C 82% Calm Calm -- 30.16 in1021.3 mb - 0.00 in0.0 mm 0.00 in0.0 mm
03:42 AM 48.7°F9.3°C 43.5°F6.4°C 82% Calm Calm -- 30.16 in1021.3 mb - 0.00 in0.0 mm 0.00 in0.0 mm
03:47 AM 48.7°F9.3°C 43.5°F6.4°C 82% Calm Calm -- 30.16 in1021.3 mb - 0.00 in0.0 mm 0.00 in0.0 mm
03:52 AM 48.9°F9.4°C 44.1°F6.7°C 83% Calm Calm -- 30.16 in1021.3 mb - 0.00 in0.0 mm 0.00 in0.0 mm
03:57 AM 48.9°F9.4°C 44.1°F6.7°C 83% Calm Calm -- 30.16 in1021.3 mb - 0.00 in0.0 mm 0.00 in0.0 mm
04:02 AM 48.9°F9.4°C 44.1°F6.7°C 83% Calm Calm -- 30.16 in1021.3 mb - 0.00 in0.0 mm 0.00 in0.0 mm
04:07 AM 48.9°F9.4°C 44.1°F6.7°C 83% Calm Calm -- 30.16 in1021.3 mb - 0.00 in0.0 mm 0.00 in0.0 mm
04:12 AM 48.7°F9.3°C 43.5°F6.4°C 82% Calm Calm -- 30.16 in1021.3 mb - 0.00 in0.0 mm 0.00 in0.0 mm
04:17 AM 48.7°F9.3°C 43.9°F6.6°C 83% Calm Calm -- 30.16 in1021.3 mb - 0.00 in0.0 mm 0.00 in0.0 mm
04:22 AM 48.7°F9.3°C 43.9°F6.6°C 83% Calm Calm -- 30.16 in1021.3 mb - 0.00 in0.0 mm 0.00 in0.0 mm
04:27 AM 48.6°F9.2°C 43.7°F6.5°C 83% Calm Calm -- 30.16 in1021.3 mb - 0.00 in0.0 mm 0.00 in0.0 mm
04:32 AM 48.4°F9.1°C 43.2°F6.2°C 82% Calm Calm -- 30.16 in1021.3 mb - 0.00 in0.0 mm 0.00 in0.0 mm
04:37 AM 48.2°F9.0°C 43.0°F6.1°C 82% Calm Calm -- 30.16 in1021.3 mb - 0.00 in0.0 mm 0.00 in0.0 mm
04:42 AM 48.2°F9.0°C 43.0°F6.1°C 82% Calm Calm -- 30.16 in1021.3 mb - 0.00 in0.0 mm 0.00 in0.0 mm
04:47 AM 48.0°F8.9°C 42.8°F6.0°C 82% Calm Calm -- 30.16 in1021.3 mb - 0.00 in0.0 mm 0.00 in0.0 mm
04:52 AM 47.8°F8.8°C 42.6°F5.9°C 82% Calm Calm -- 30.16 in1021.3 mb - 0.00 in0.0 mm 0.00 in0.0 mm
04:57 AM 47.8°F8.8°C 42.6°F5.9°C 82% Calm Calm -- 30.16 in1021.3 mb - 0.00 in0.0 mm 0.00 in0.0 mm
05:02 AM 47.7°F8.7°C 42.4°F5.8°C 82% Calm Calm -- 30.16 in1021.3 mb - 0.00 in0.0 mm 0.00 in0.0 mm
05:07 AM 47.7°F8.7°C 42.4°F5.8°C 82% Calm Calm -- 30.16 in1021.3 mb - 0.00 in0.0 mm 0.00 in0.0 mm
05:12 AM 47.7°F8.7°C 42.8°F6.0°C 83% Calm Calm -- 30.13 in1020.3 mb - 0.00 in0.0 mm 0.00 in0.0 mm
05:17 AM 47.7°F8.7°C 42.8°F6.0°C 83% Calm Calm -- 30.13 in1020.3 mb - 0.00 in0.0 mm 0.00 in0.0 mm
05:22 AM 47.8°F8.8°C 43.2°F6.2°C 84% Calm Calm -- 30.13 in1020.3 mb - 0.00 in0.0 mm 0.00 in0.0 mm
05:27 AM 48.0°F8.9°C 43.3°F6.3°C 84% Calm Calm -- 30.16 in1021.3 mb - 0.00 in0.0 mm 0.00 in0.0 mm
05:32 AM 48.2°F9.0°C 43.5°F6.4°C 84% Calm Calm -- 30.16 in1021.3 mb - 0.00 in0.0 mm 0.00 in0.0 mm
05:37 AM 48.2°F9.0°C 43.9°F6.6°C 85% Calm Calm -- 30.16 in1021.3 mb - 0.00 in0.0 mm 0.00 in0.0 mm
05:42 AM 48.4°F9.1°C 44.1°F6.7°C 85% Calm Calm -- 30.16 in1021.3 mb - 0.00 in0.0 mm 0.00 in0.0 mm
05:47 AM 48.4°F9.1°C 44.1°F6.7°C 85% Calm Calm -- 30.16 in1021.3 mb - 0.00 in0.0 mm 0.00 in0.0 mm
05:52 AM 48.6°F9.2°C 44.2°F6.8°C 85% Calm Calm -- 30.16 in1021.3 mb - 0.00 in0.0 mm 0.00 in0.0 mm
05:57 AM 48.6°F9.2°C 44.2°F6.8°C 85% Calm Calm -- 30.16 in1021.3 mb - 0.00 in0.0 mm 0.00 in0.0 mm
06:02 AM 48.6°F9.2°C 44.2°F6.8°C 85% Calm Calm -- 30.16 in1021.3 mb - 0.00 in0.0 mm 0.00 in0.0 mm
06:07 AM 48.6°F9.2°C 44.2°F6.8°C 85% Calm Calm -- 30.16 in1021.3 mb - 0.00 in0.0 mm 0.00 in0.0 mm
06:12 AM 48.6°F9.2°C 44.2°F6.8°C 85% Calm Calm -- 30.16 in1021.3 mb - 0.00 in0.0 mm 0.00 in0.0 mm
06:17 AM 48.6°F9.2°C 44.2°F6.8°C 85% Calm Calm -- 30.16 in1021.3 mb - 0.00 in0.0 mm 0.00 in0.0 mm
06:22 AM 48.4°F9.1°C 44.1°F6.7°C 85% Calm Calm -- 30.16 in1021.3 mb - 0.00 in0.0 mm 0.00 in0.0 mm
06:27 AM 48.2°F9.0°C 43.5°F6.4°C 84% Calm Calm -- 30.16 in1021.3 mb - 0.00 in0.0 mm 0.00 in0.0 mm
06:32 AM 48.2°F9.0°C 43.5°F6.4°C 84% Calm Calm -- 30.16 in1021.3 mb - 0.00 in0.0 mm 0.00 in0.0 mm
06:37 AM 48.2°F9.0°C 43.5°F6.4°C 84% Calm Calm -- 30.16 in1021.3 mb - 0.00 in0.0 mm 0.00 in0.0 mm
06:42 AM 48.0°F8.9°C 43.3°F6.3°C 84% Calm Calm -- 30.16 in1021.3 mb - 0.00 in0.0 mm 0.00 in0.0 mm
06:47 AM 47.8°F8.8°C 43.2°F6.2°C 84% Calm Calm -- 30.16 in1021.3 mb - 0.00 in0.0 mm 0.00 in0.0 mm
06:52 AM 47.7°F8.7°C 43.2°F6.2°C 84% Calm Calm -- 30.16 in1021.3 mb - 0.00 in0.0 mm 0.00 in0.0 mm
06:57 AM 47.7°F8.7°C 43.2°F6.2°C 84% Calm Calm -- 30.19 in1022.4 mb - 0.00 in0.0 mm 0.00 in0.0 mm
07:02 AM 47.5°F8.6°C 43.0°F6.1°C 84% Calm Calm -- 30.19 in1022.4 mb - 0.00 in0.0 mm 0.00 in0.0 mm
07:07 AM 47.3°F8.5°C 42.8°F6.0°C 84% Calm Calm -- 30.19 in1022.4 mb - 0.00 in0.0 mm 0.00 in0.0 mm
07:12 AM 47.1°F8.4°C 42.6°F5.9°C 84% Calm Calm -- 30.16 in1021.3 mb - 0.00 in0.0 mm 0.00 in0.0 mm
07:17 AM 47.1°F8.4°C 42.6°F5.9°C 84% Calm Calm -- 30.16 in1021.3 mb - 0.00 in0.0 mm 0.00 in0.0 mm
07:22 AM 46.9°F8.3°C 42.4°F5.8°C 84% Calm Calm -- 30.16 in1021.3 mb - 0.00 in0.0 mm 0.00 in0.0 mm
07:27 AM 46.9°F8.3°C 42.4°F5.8°C 84% Calm Calm -- 30.16 in1021.3 mb - 0.00 in0.0 mm 0.00 in0.0 mm
07:32 AM 47.3°F8.5°C 42.8°F6.0°C 84% Calm Calm -- 30.16 in1021.3 mb - 0.00 in0.0 mm 0.00 in0.0 mm
07:37 AM 47.7°F8.7°C 43.3°F6.3°C 85% Calm Calm -- 30.16 in1021.3 mb - 0.00 in0.0 mm 0.00 in0.0 mm
07:42 AM 48.2°F9.0°C 44.2°F6.8°C 86% Calm Calm -- 30.16 in1021.3 mb - 0.00 in0.0 mm 0.00 in0.0 mm
07:47 AM 48.7°F9.3°C 44.8°F7.1°C 86% Calm Calm -- 30.16 in1021.3 mb - 0.00 in0.0 mm 0.00 in0.0 mm
07:52 AM 49.3°F9.6°C 45.5°F7.5°C 87% Calm Calm -- 30.16 in1021.3 mb - 0.00 in0.0 mm 0.00 in0.0 mm
07:57 AM 49.6°F9.8°C 45.9°F7.7°C 87% Calm Calm -- 30.16 in1021.3 mb - 0.00 in0.0 mm 0.00 in0.0 mm
08:02 AM 50.2°F10.1°C 46.4°F8.0°C 87% Calm Calm -- 30.16 in1021.3 mb - 0.00 in0.0 mm 0.00 in0.0 mm
08:07 AM 50.7°F10.4°C 47.3°F8.5°C 88% Calm Calm -- 30.16 in1021.3 mb - 0.00 in0.0 mm 0.00 in0.0 mm
08:12 AM 51.4°F10.8°C 48.0°F8.9°C 88% Calm Calm -- 30.16 in1021.3 mb - 0.00 in0.0 mm 0.00 in0.0 mm
08:17 AM 52.0°F11.1°C 48.6°F9.2°C 88% Calm Calm -- 30.16 in1021.3 mb - 0.00 in0.0 mm 0.00 in0.0 mm
08:22 AM 52.5°F11.4°C 48.7°F9.3°C 87% Calm Calm -- 30.16 in1021.3 mb - 0.00 in0.0 mm 0.00 in0.0 mm
08:27 AM 53.1°F11.7°C 49.3°F9.6°C 87% Calm Calm -- 30.16 in1021.3 mb - 0.00 in0.0 mm 0.00 in0.0 mm
08:32 AM 53.6°F12.0°C 49.8°F9.9°C 87% Calm Calm -- 30.16 in1021.3 mb - 0.00 in0.0 mm 0.00 in0.0 mm
08:37 AM 54.1°F12.3°C 50.0°F10.0°C 86% Calm Calm -- 30.16 in1021.3 mb - 0.00 in0.0 mm 0.00 in0.0 mm
08:42 AM 54.9°F12.7°C 51.1°F10.6°C 87% Calm Calm -- 30.16 in1021.3 mb - 0.00 in0.0 mm 0.00 in0.0 mm
08:47 AM 55.4°F13.0°C 51.3°F10.7°C 86% Calm Calm -- 30.16 in1021.3 mb - 0.00 in0.0 mm 0.00 in0.0 mm
08:52 AM 55.9°F13.3°C 51.4°F10.8°C 85% Calm Calm -- 30.16 in1021.3 mb - 0.00 in0.0 mm 0.00 in0.0 mm
08:57 AM 56.5°F13.6°C 51.8°F11.0°C 84% Calm Calm -- 30.19 in1022.4 mb - 0.00 in0.0 mm 0.00 in0.0 mm
09:02 AM 57.2°F14.0°C 52.3°F11.3°C 84% Calm Calm -- 30.19 in1022.4 mb - 0.00 in0.0 mm 0.00 in0.0 mm
09:07 AM 58.3°F14.6°C 53.4°F11.9°C 84% Calm Calm -- 30.19 in1022.4 mb - 0.00 in0.0 mm 0.00 in0.0 mm
09:12 AM 58.8°F14.9°C 53.4°F11.9°C 82% Calm Calm -- 30.19 in1022.4 mb - 0.00 in0.0 mm 0.00 in0.0 mm
09:17 AM 59.2°F15.1°C 53.1°F11.7°C 80% Calm Calm -- 30.19 in1022.4 mb - 0.00 in0.0 mm 0.00 in0.0 mm
09:22 AM 59.5°F15.3°C 53.1°F11.7°C 79% Calm Calm -- 30.19 in1022.4 mb - 0.00 in0.0 mm 0.00 in0.0 mm
09:27 AM 59.9°F15.5°C 53.1°F11.7°C 78% Calm Calm -- 30.19 in1022.4 mb - 0.00 in0.0 mm 0.00 in0.0 mm
09:32 AM 60.8°F16.0°C 54.0°F12.2°C 78% Calm Calm -- 30.19 in1022.4 mb - 0.00 in0.0 mm 0.00 in0.0 mm
09:37 AM 61.2°F16.2°C 54.3°F12.4°C 78% Calm Calm -- 30.19 in1022.4 mb - 0.00 in0.0 mm 0.00 in0.0 mm
09:42 AM 61.7°F16.5°C 54.5°F12.5°C 77% Calm Calm -- 30.19 in1022.4 mb - 0.00 in0.0 mm 0.00 in0.0 mm
09:47 AM 62.4°F16.9°C 54.7°F12.6°C 76% 1.3 mph S2.1 kmh S 3.6 mph5.8 kmh 30.19 in1022.4 mb - 0.00 in0.0 mm 0.00 in0.0 mm
09:52 AM 63.3°F17.4°C 55.2°F12.9°C 75% 1.3 mph SE2.1 kmh SE 4.0 mph6.4 kmh 30.19 in1022.4 mb - 0.00 in0.0 mm 0.00 in0.0 mm
09:57 AM 64.0°F17.8°C 55.6°F13.1°C 74% 2.2 mph S3.5 kmh S 2.2 mph3.5 kmh 30.16 in1021.3 mb - 0.00 in0.0 mm 0.00 in0.0 mm
10:02 AM 64.8°F18.2°C 55.9°F13.3°C 73% 2.2 mph S3.5 kmh S 4.3 mph6.9 kmh 30.16 in1021.3 mb - 0.00 in0.0 mm 0.00 in0.0 mm
10:07 AM 65.3°F18.5°C 56.1°F13.4°C 72% 2.2 mph SW3.5 kmh SW 4.5 mph7.2 kmh 30.16 in1021.3 mb - 0.00 in0.0 mm 0.00 in0.0 mm
10:12 AM 66.0°F18.9°C 56.7°F13.7°C 72% 1.3 mph SSW2.1 kmh SSW 3.4 mph5.5 kmh 30.16 in1021.3 mb - 0.00 in0.0 mm 0.00 in0.0 mm
10:17 AM 66.2°F19.0°C 54.5°F12.5°C 66% 0.4 mph SSW0.6 kmh SSW 2.9 mph4.7 kmh 30.16 in1021.3 mb - 0.00 in0.0 mm 0.00 in0.0 mm
10:22 AM 66.6°F19.2°C 54.5°F12.5°C 65% 1.3 mph W2.1 kmh W 4.7 mph7.6 kmh 30.16 in1021.3 mb - 0.00 in0.0 mm 0.00 in0.0 mm
10:27 AM 67.3°F19.6°C 55.0°F12.8°C 65% 2.9 mph SW4.7 kmh SW 7.2 mph11.6 kmh 30.16 in1021.3 mb - 0.00 in0.0 mm 0.00 in0.0 mm
10:32 AM 67.8°F19.9°C 55.2°F12.9°C 64% 2.0 mph N3.2 kmh N 6.5 mph10.5 kmh 30.16 in1021.3 mb - 0.00 in0.0 mm 0.00 in0.0 mm
10:52 AM 67.8°F19.9°C 52.5°F11.4°C 58% 5.4 mph W8.7 kmh W 11.4 mph18.3 kmh 30.16 in1021.3 mb - 0.00 in0.0 mm 0.00 in0.0 mm
10:57 AM 68.0°F20.0°C 52.2°F11.2°C 57% 4.0 mph NW6.4 kmh NW 9.8 mph15.8 kmh 30.16 in1021.3 mb - 0.00 in0.0 mm 0.00 in0.0 mm
11:02 AM 68.4°F20.2°C 51.6°F10.9°C 55% 4.3 mph W6.9 kmh W 8.7 mph14.0 kmh 30.16 in1021.3 mb - 0.00 in0.0 mm 0.00 in0.0 mm
11:07 AM 68.5°F20.3°C 51.8°F11.0°C 55% 2.5 mph NW4.0 kmh NW 8.9 mph14.3 kmh 30.16 in1021.3 mb - 0.00 in0.0 mm 0.00 in0.0 mm
11:17 AM 68.9°F20.5°C 51.6°F10.9°C 54% 4.3 mph WNW6.9 kmh WNW 9.2 mph14.8 kmh 30.16 in1021.3 mb - 0.00 in0.0 mm 0.00 in0.0 mm
11:22 AM 68.5°F20.3°C 50.2°F10.1°C 52% 3.6 mph WSW5.8 kmh WSW 8.9 mph14.3 kmh 30.16 in1021.3 mb - 0.00 in0.0 mm 0.00 in0.0 mm
11:27 AM 68.9°F20.5°C 51.1°F10.6°C 53% 3.8 mph WSW6.1 kmh WSW 9.8 mph15.8 kmh 30.13 in1020.3 mb - 0.00 in0.0 mm 0.00 in0.0 mm
11:32 AM 69.4°F20.8°C 51.1°F10.6°C 52% 4.7 mph NW7.6 kmh NW 4.7 mph7.6 kmh 30.13 in1020.3 mb - 0.00 in0.0 mm 0.00 in0.0 mm
11:37 AM 69.3°F20.7°C 50.9°F10.5°C 52% 4.3 mph NW6.9 kmh NW 9.2 mph14.8 kmh 30.13 in1020.3 mb - 0.00 in0.0 mm 0.00 in0.0 mm
11:42 AM 69.1°F20.6°C 50.7°F10.4°C 52% 4.5 mph SW7.2 kmh SW 8.9 mph14.3 kmh 30.13 in1020.3 mb - 0.00 in0.0 mm 0.00 in0.0 mm
11:47 AM 69.3°F20.7°C 50.9°F10.5°C 52% 7.6 mph WSW12.2 kmh WSW 13.0 mph20.9 kmh 30.13 in1020.3 mb - 0.00 in0.0 mm 0.00 in0.0 mm
11:52 AM 69.6°F20.9°C 50.7°F10.4°C 51% 6.7 mph NW10.8 kmh NW 11.6 mph18.7 kmh 30.13 in1020.3 mb - 0.00 in0.0 mm 0.00 in0.0 mm
11:57 AM 69.8°F21.0°C 50.9°F10.5°C 51% 5.1 mph NW8.2 kmh NW 11.0 mph17.7 kmh 30.16 in1021.3 mb - 0.00 in0.0 mm 0.00 in0.0 mm
12:02 PM 70.5°F21.4°C 51.6°F10.9°C 51% 4.5 mph NW7.2 kmh NW 8.9 mph14.3 kmh 30.16 in1021.3 mb - 0.00 in0.0 mm 0.00 in0.0 mm
12:07 PM 71.2°F21.8°C 52.2°F11.2°C 51% 3.6 mph NW5.8 kmh NW 9.6 mph15.4 kmh 30.16 in1021.3 mb - 0.00 in0.0 mm 0.00 in0.0 mm
12:12 PM 70.5°F21.4°C 50.5°F10.3°C 49% 3.4 mph NW5.5 kmh NW 3.4 mph5.5 kmh 30.13 in1020.3 mb - 0.00 in0.0 mm 0.00 in0.0 mm
12:17 PM 70.9°F21.6°C 51.3°F10.7°C 50% 4.5 mph NW7.2 kmh NW 10.7 mph17.2 kmh 30.13 in1020.3 mb - 0.00 in0.0 mm 0.00 in0.0 mm
12:22 PM 70.9°F21.6°C 50.2°F10.1°C 48% 4.7 mph WNW7.6 kmh WNW 10.1 mph16.3 kmh 30.13 in1020.3 mb - 0.00 in0.0 mm 0.00 in0.0 mm
12:27 PM 71.4°F21.9°C 51.3°F10.7°C 49% 3.8 mph NW6.1 kmh NW 10.7 mph17.2 kmh 30.16 in1021.3 mb - 0.00 in0.0 mm 0.00 in0.0 mm
12:32 PM 71.8°F22.1°C 51.1°F10.6°C 48% 5.6 mph NW9.0 kmh NW 10.3 mph16.6 kmh 30.16 in1021.3 mb - 0.00 in0.0 mm 0.00 in0.0 mm
12:37 PM 71.8°F22.1°C 51.1°F10.6°C 48% 4.0 mph NNW6.4 kmh NNW 9.2 mph14.8 kmh 30.16 in1021.3 mb - 0.00 in0.0 mm 0.00 in0.0 mm
12:42 PM 72.0°F22.2°C 51.3°F10.7°C 48% 5.4 mph NW8.7 kmh NW 11.0 mph17.7 kmh 30.19 in1022.4 mb - 0.00 in0.0 mm 0.00 in0.0 mm
12:47 PM 72.3°F22.4°C 51.6°F10.9°C 48% 4.5 mph NW7.2 kmh NW 9.4 mph15.1 kmh 30.19 in1022.4 mb - 0.00 in0.0 mm 0.00 in0.0 mm
12:52 PM 72.1°F22.3°C 50.9°F10.5°C 47% 4.0 mph NW6.4 kmh NW 8.7 mph14.0 kmh 30.19 in1022.4 mb - 0.00 in0.0 mm 0.00 in0.0 mm
12:57 PM 72.3°F22.4°C 50.9°F10.5°C 47% 4.5 mph NNE7.2 kmh NNE 13.2 mph21.2 kmh 30.16 in1021.3 mb - 0.00 in0.0 mm 0.00 in0.0 mm
01:02 PM 72.9°F22.7°C 51.4°F10.8°C 47% 6.0 mph WNW9.7 kmh WNW 12.8 mph20.6 kmh 30.16 in1021.3 mb - 0.00 in0.0 mm 0.00 in0.0 mm
01:07 PM 72.9°F22.7°C 50.9°F10.5°C 46% 4.9 mph NNW7.9 kmh NNW 11.4 mph18.3 kmh 30.16 in1021.3 mb - 0.00 in0.0 mm 0.00 in0.0 mm
01:12 PM 72.9°F22.7°C 50.9°F10.5°C 46% 4.7 mph WNW7.6 kmh WNW 10.5 mph16.9 kmh 30.16 in1021.3 mb - 0.00 in0.0 mm 0.00 in0.0 mm
01:17 PM 72.3°F22.4°C 49.8°F9.9°C 45% 5.1 mph W8.2 kmh W 8.9 mph14.3 kmh 30.16 in1021.3 mb - 0.00 in0.0 mm 0.00 in0.0 mm
01:22 PM 72.0°F22.2°C 48.9°F9.4°C 44% 3.4 mph NW5.5 kmh NW 6.9 mph11.1 kmh 30.16 in1021.3 mb - 0.00 in0.0 mm 0.00 in0.0 mm
01:27 PM 72.1°F22.3°C 49.1°F9.5°C 44% 6.0 mph WNW9.7 kmh WNW 11.9 mph19.2 kmh 30.13 in1020.3 mb - 0.00 in0.0 mm 0.00 in0.0 mm
01:32 PM 72.1°F22.3°C 49.1°F9.5°C 44% 6.7 mph W10.8 kmh W 12.3 mph19.8 kmh 30.13 in1020.3 mb - 0.00 in0.0 mm 0.00 in0.0 mm
01:37 PM 72.0°F22.2°C 48.9°F9.4°C 44% 6.3 mph NW10.1 kmh NW 12.1 mph19.5 kmh 30.13 in1020.3 mb - 0.00 in0.0 mm 0.00 in0.0 mm
01:42 PM 72.1°F22.3°C 49.1°F9.5°C 44% 5.1 mph WSW8.2 kmh WSW 11.4 mph18.3 kmh 30.13 in1020.3 mb - 0.00 in0.0 mm 0.00 in0.0 mm
01:47 PM 72.3°F22.4°C 49.3°F9.6°C 44% 5.4 mph W8.7 kmh W 14.3 mph23.0 kmh 30.13 in1020.3 mb - 0.00 in0.0 mm 0.00 in0.0 mm
01:52 PM 72.3°F22.4°C 49.8°F9.9°C 45% 5.4 mph WNW8.7 kmh WNW 13.9 mph22.4 kmh 30.13 in1020.3 mb - 0.00 in0.0 mm 0.00 in0.0 mm
01:57 PM 72.5°F22.5°C 50.0°F10.0°C 45% 7.4 mph W11.9 kmh W 12.1 mph19.5 kmh 30.13 in1020.3 mb - 0.00 in0.0 mm 0.00 in0.0 mm
02:02 PM 72.9°F22.7°C 49.6°F9.8°C 44% 6.7 mph WNW10.8 kmh WNW 11.2 mph18.0 kmh 30.13 in1020.3 mb - 0.00 in0.0 mm 0.00 in0.0 mm
02:07 PM 73.0°F22.8°C 49.8°F9.9°C 44% 6.7 mph NNW10.8 kmh NNW 6.7 mph10.8 kmh 30.13 in1020.3 mb - 0.00 in0.0 mm 0.00 in0.0 mm
02:12 PM 73.4°F23.0°C 49.6°F9.8°C 43% 5.8 mph NW9.3 kmh NW 5.8 mph9.3 kmh 30.13 in1020.3 mb - 0.00 in0.0 mm 0.00 in0.0 mm
02:17 PM 73.0°F22.8°C 49.8°F9.9°C 44% 5.8 mph NW9.3 kmh NW 8.9 mph14.3 kmh 30.13 in1020.3 mb - 0.00 in0.0 mm 0.00 in0.0 mm
02:22 PM 72.7°F22.6°C 49.5°F9.7°C 44% 5.8 mph NW9.3 kmh NW 10.3 mph16.6 kmh 30.13 in1020.3 mb - 0.00 in0.0 mm 0.00 in0.0 mm
02:27 PM 73.2°F22.9°C 50.0°F10.0°C 44% 5.4 mph W8.7 kmh W 12.1 mph19.5 kmh 30.13 in1020.3 mb - 0.00 in0.0 mm 0.00 in0.0 mm
02:32 PM 73.0°F22.8°C 49.3°F9.6°C 43% 5.1 mph NW8.2 kmh NW 14.8 mph23.8 kmh 30.13 in1020.3 mb - 0.00 in0.0 mm 0.00 in0.0 mm
02:37 PM 73.2°F22.9°C 50.0°F10.0°C 44% 5.1 mph WNW8.2 kmh WNW 11.4 mph18.3 kmh 30.13 in1020.3 mb - 0.00 in0.0 mm 0.00 in0.0 mm
02:42 PM 73.8°F23.2°C 49.3°F9.6°C 42% 4.9 mph W7.9 kmh W 10.7 mph17.2 kmh 30.10 in1019.3 mb - 0.00 in0.0 mm 0.00 in0.0 mm
02:47 PM 73.9°F23.3°C 49.5°F9.7°C 42% 4.3 mph WSW6.9 kmh WSW 13.0 mph20.9 kmh 30.10 in1019.3 mb - 0.00 in0.0 mm 0.00 in0.0 mm
02:52 PM 74.1°F23.4°C 49.6°F9.8°C 42% 5.4 mph WNW8.7 kmh WNW 11.9 mph19.2 kmh 30.10 in1019.3 mb - 0.00 in0.0 mm 0.00 in0.0 mm
02:57 PM 73.8°F23.2°C 49.3°F9.6°C 42% 5.4 mph NW8.7 kmh NW 10.3 mph16.6 kmh 30.10 in1019.3 mb - 0.00 in0.0 mm 0.00 in0.0 mm
03:02 PM 73.8°F23.2°C 49.3°F9.6°C 42% 6.9 mph WNW11.1 kmh WNW 12.1 mph19.5 kmh 30.10 in1019.3 mb - 0.00 in0.0 mm 0.00 in0.0 mm
03:07 PM 74.1°F23.4°C 48.9°F9.4°C 41% 4.5 mph W7.2 kmh W 4.5 mph7.2 kmh 30.10 in1019.3 mb - 0.00 in0.0 mm 0.00 in0.0 mm
03:12 PM 74.1°F23.4°C 49.6°F9.8°C 42% 4.0 mph NNW6.4 kmh NNW 9.4 mph15.1 kmh 30.10 in1019.3 mb - 0.00 in0.0 mm 0.00 in0.0 mm
03:17 PM 74.3°F23.5°C 49.8°F9.9°C 42% 5.4 mph WNW8.7 kmh WNW 9.8 mph15.8 kmh 30.10 in1019.3 mb - 0.00 in0.0 mm 0.00 in0.0 mm
03:22 PM 73.8°F23.2°C 48.6°F9.2°C 41% 4.7 mph N7.6 kmh N 8.5 mph13.7 kmh 30.10 in1019.3 mb - 0.00 in0.0 mm 0.00 in0.0 mm
03:27 PM 74.1°F23.4°C 49.6°F9.8°C 42% 6.0 mph N9.7 kmh N 9.2 mph14.8 kmh 30.10 in1019.3 mb - 0.00 in0.0 mm 0.00 in0.0 mm
03:32 PM 74.3°F23.5°C 49.8°F9.9°C 42% 5.4 mph WNW8.7 kmh WNW 10.3 mph16.6 kmh 30.10 in1019.3 mb - 0.00 in0.0 mm 0.00 in0.0 mm
03:37 PM 74.5°F23.6°C 49.8°F9.9°C 42% 5.1 mph N8.2 kmh N 11.0 mph17.7 kmh 30.10 in1019.3 mb - 0.00 in0.0 mm 0.00 in0.0 mm
03:42 PM 74.7°F23.7°C 50.0°F10.0°C 42% 4.5 mph NNW7.2 kmh NNW 8.9 mph14.3 kmh 30.10 in1019.3 mb - 0.00 in0.0 mm 0.00 in0.0 mm
03:47 PM 74.3°F23.5°C 49.8°F9.9°C 42% 3.6 mph W5.8 kmh W 7.4 mph11.9 kmh 30.10 in1019.3 mb - 0.00 in0.0 mm 0.00 in0.0 mm
03:52 PM 74.5°F23.6°C 49.8°F9.9°C 42% 3.6 mph NW5.8 kmh NW 9.2 mph14.8 kmh 30.10 in1019.3 mb - 0.00 in0.0 mm 0.00 in0.0 mm
03:57 PM 74.3°F23.5°C 49.1°F9.5°C 41% 4.7 mph W7.6 kmh W 8.5 mph13.7 kmh 30.10 in1019.3 mb - 0.00 in0.0 mm 0.00 in0.0 mm
04:02 PM 74.5°F23.6°C 49.8°F9.9°C 42% 4.9 mph NE7.9 kmh NE 4.9 mph7.9 kmh 30.10 in1019.3 mb - 0.00 in0.0 mm 0.00 in0.0 mm
04:07 PM 74.3°F23.5°C 49.1°F9.5°C 41% 4.7 mph NW7.6 kmh NW 7.6 mph12.2 kmh 30.10 in1019.3 mb - 0.00 in0.0 mm 0.00 in0.0 mm
04:12 PM 74.3°F23.5°C 49.1°F9.5°C 41% 2.2 mph NW3.5 kmh NW 5.1 mph8.2 kmh 30.10 in1019.3 mb - 0.00 in0.0 mm 0.00 in0.0 mm
04:17 PM 74.1°F23.4°C 48.9°F9.4°C 41% 5.1 mph NW8.2 kmh NW 8.5 mph13.7 kmh 30.10 in1019.3 mb - 0.00 in0.0 mm 0.00 in0.0 mm
04:22 PM 74.3°F23.5°C 49.8°F9.9°C 42% 2.9 mph NW4.7 kmh NW 2.9 mph4.7 kmh 30.10 in1019.3 mb - 0.00 in0.0 mm 0.00 in0.0 mm
04:27 PM 73.8°F23.2°C 48.6°F9.2°C 41% 4.0 mph W6.4 kmh W 8.3 mph13.4 kmh 30.10 in1019.3 mb - 0.00 in0.0 mm 0.00 in0.0 mm
04:32 PM 73.8°F23.2°C 48.6°F9.2°C 41% 4.7 mph WNW7.6 kmh WNW 8.1 mph13.0 kmh 30.10 in1019.3 mb - 0.00 in0.0 mm 0.00 in0.0 mm
04:37 PM 73.6°F23.1°C 48.4°F9.1°C 41% 4.3 mph W6.9 kmh W 7.8 mph12.6 kmh 30.10 in1019.3 mb - 0.00 in0.0 mm 0.00 in0.0 mm
04:42 PM 73.6°F23.1°C 49.1°F9.5°C 42% 3.6 mph WNW5.8 kmh WNW 7.4 mph11.9 kmh 30.10 in1019.3 mb - 0.00 in0.0 mm 0.00 in0.0 mm
04:47 PM 73.6°F23.1°C 49.1°F9.5°C 42% 4.7 mph NW7.6 kmh NW 11.6 mph18.7 kmh 30.10 in1019.3 mb - 0.00 in0.0 mm 0.00 in0.0 mm
04:52 PM 73.6°F23.1°C 49.1°F9.5°C 42% 4.5 mph NNW7.2 kmh NNW 8.5 mph13.7 kmh 30.10 in1019.3 mb - 0.00 in0.0 mm 0.00 in0.0 mm
04:57 PM 73.2°F22.9°C 49.5°F9.7°C 43% 4.7 mph WNW7.6 kmh WNW 10.1 mph16.3 kmh 30.10 in1019.3 mb - 0.00 in0.0 mm 0.00 in0.0 mm
05:02 PM 73.0°F22.8°C 49.3°F9.6°C 43% 4.9 mph NW7.9 kmh NW 8.3 mph13.4 kmh 30.10 in1019.3 mb - 0.00 in0.0 mm 0.00 in0.0 mm
05:07 PM 73.0°F22.8°C 49.3°F9.6°C 43% 6.3 mph NW10.1 kmh NW 12.1 mph19.5 kmh 30.10 in1019.3 mb - 0.00 in0.0 mm 0.00 in0.0 mm
05:12 PM 72.9°F22.7°C 49.6°F9.8°C 44% 2.2 mph WNW3.5 kmh WNW 4.7 mph7.6 kmh 30.10 in1019.3 mb - 0.00 in0.0 mm 0.00 in0.0 mm
05:17 PM 72.7°F22.6°C 49.5°F9.7°C 44% 4.5 mph NW7.2 kmh NW 10.7 mph17.2 kmh 30.10 in1019.3 mb - 0.00 in0.0 mm 0.00 in0.0 mm
05:22 PM 72.5°F22.5°C 49.3°F9.6°C 44% 4.0 mph 6.4 kmh 7.4 mph11.9 kmh 30.10 in1019.3 mb - 0.00 in0.0 mm 0.00 in0.0 mm
05:27 PM 72.3°F22.4°C 49.3°F9.6°C 44% 5.8 mph NW9.3 kmh NW 10.3 mph16.6 kmh 30.10 in1019.3 mb - 0.00 in0.0 mm 0.00 in0.0 mm
05:32 PM 72.1°F22.3°C 49.6°F9.8°C 45% 4.7 mph NNW7.6 kmh NNW 7.4 mph11.9 kmh 30.10 in1019.3 mb - 0.00 in0.0 mm 0.00 in0.0 mm
05:37 PM 71.6°F22.0°C 49.1°F9.5°C 45% 4.5 mph WNW7.2 kmh WNW 7.8 mph12.6 kmh 30.10 in1019.3 mb - 0.00 in0.0 mm 0.00 in0.0 mm
05:42 PM 71.1°F21.7°C 48.7°F9.3°C 45% 4.9 mph NW7.9 kmh NW 8.5 mph13.7 kmh 30.10 in1019.3 mb - 0.00 in0.0 mm 0.00 in0.0 mm
05:47 PM 70.5°F21.4°C 48.7°F9.3°C 46% 5.4 mph WNW8.7 kmh WNW 8.9 mph14.3 kmh 30.10 in1019.3 mb - 0.00 in0.0 mm 0.00 in0.0 mm
05:52 PM 70.0°F21.1°C 48.2°F9.0°C 46% 6.0 mph NW9.7 kmh NW 9.2 mph14.8 kmh 30.10 in1019.3 mb - 0.00 in0.0 mm 0.00 in0.0 mm
05:57 PM 69.6°F20.9°C 48.6°F9.2°C 47% 5.1 mph NW8.2 kmh NW 5.1 mph8.2 kmh 30.13 in1020.3 mb - 0.00 in0.0 mm 0.00 in0.0 mm
06:02 PM 69.3°F20.7°C 48.2°F9.0°C 47% 5.8 mph NW9.3 kmh NW 9.6 mph15.4 kmh 30.13 in1020.3 mb - 0.00 in0.0 mm 0.00 in0.0 mm
06:07 PM 69.1°F20.6°C 48.6°F9.2°C 48% 5.8 mph WNW9.3 kmh WNW 8.9 mph14.3 kmh 30.13 in1020.3 mb - 0.00 in0.0 mm 0.00 in0.0 mm
06:12 PM 68.7°F20.4°C 48.2°F9.0°C 48% 5.6 mph NW9.0 kmh NW 8.1 mph13.0 kmh 30.13 in1020.3 mb - 0.00 in0.0 mm 0.00 in0.0 mm
06:17 PM 68.5°F20.3°C 48.0°F8.9°C 48% 4.9 mph WNW7.9 kmh WNW 7.4 mph11.9 kmh 30.13 in1020.3 mb - 0.00 in0.0 mm 0.00 in0.0 mm
06:22 PM 68.4°F20.2°C 47.8°F8.8°C 48% 2.7 mph WNW4.3 kmh WNW 6.7 mph10.8 kmh 30.13 in1020.3 mb - 0.00 in0.0 mm 0.00 in0.0 mm
06:27 PM 68.2°F20.1°C 47.8°F8.8°C 48% 4.5 mph NW7.2 kmh NW 8.5 mph13.7 kmh 30.13 in1020.3 mb - 0.00 in0.0 mm 0.00 in0.0 mm
06:32 PM 68.0°F20.0°C 47.7°F8.7°C 48% 2.7 mph NW4.3 kmh NW 9.2 mph14.8 kmh 30.13 in1020.3 mb - 0.00 in0.0 mm 0.00 in0.0 mm
06:37 PM 67.6°F19.8°C 47.8°F8.8°C 49% 1.1 mph NW1.8 kmh NW 4.0 mph6.4 kmh 30.13 in1020.3 mb - 0.00 in0.0 mm 0.00 in0.0 mm
06:42 PM 67.3°F19.6°C 47.5°F8.6°C 49% 0.9 mph NW1.4 kmh NW 7.2 mph11.6 kmh 30.13 in1020.3 mb - 0.00 in0.0 mm 0.00 in0.0 mm
06:47 PM 66.9°F19.4°C 47.1°F8.4°C 49% 1.1 mph N1.8 kmh N 4.9 mph7.9 kmh 30.13 in1020.3 mb - 0.00 in0.0 mm 0.00 in0.0 mm
06:52 PM 66.6°F19.2°C 46.8°F8.2°C 49% 1.8 mph W2.9 kmh W 5.6 mph9.0 kmh 30.13 in1020.3 mb - 0.00 in0.0 mm 0.00 in0.0 mm
06:57 PM 65.8°F18.8°C 47.3°F8.5°C 51% 2.7 mph WSW4.3 kmh WSW 4.7 mph7.6 kmh 30.16 in1021.3 mb - 0.00 in0.0 mm 0.00 in0.0 mm
07:02 PM 65.3°F18.5°C 46.8°F8.2°C 51% 2.2 mph SW3.5 kmh SW 3.4 mph5.5 kmh 30.16 in1021.3 mb - 0.00 in0.0 mm 0.00 in0.0 mm
07:07 PM 64.9°F18.3°C 46.4°F8.0°C 51% 1.3 mph WSW2.1 kmh WSW 3.1 mph5.0 kmh 30.16 in1021.3 mb - 0.00 in0.0 mm 0.00 in0.0 mm
07:12 PM 64.2°F17.9°C 46.2°F7.9°C 52% 0.7 mph SW1.1 kmh SW 2.5 mph4.0 kmh 30.16 in1021.3 mb - 0.00 in0.0 mm 0.00 in0.0 mm
07:17 PM 63.7°F17.6°C 45.7°F7.6°C 52% Calm Calm -- 30.16 in1021.3 mb - 0.00 in0.0 mm 0.00 in0.0 mm
07:22 PM 63.1°F17.3°C 45.7°F7.6°C 53% Calm Calm -- 30.16 in1021.3 mb - 0.00 in0.0 mm 0.00 in0.0 mm
07:27 PM 62.8°F17.1°C 45.9°F7.7°C 54% Calm Calm -- 30.16 in1021.3 mb - 0.00 in0.0 mm 0.00 in0.0 mm
07:32 PM 62.2°F16.8°C 45.9°F7.7°C 55% 0.4 mph S0.6 kmh S 2.5 mph4.0 kmh 30.16 in1021.3 mb - 0.00 in0.0 mm 0.00 in0.0 mm
07:37 PM 61.9°F16.6°C 46.0°F7.8°C 56% Calm Calm -- 30.16 in1021.3 mb - 0.00 in0.0 mm 0.00 in0.0 mm
07:42 PM 61.5°F16.4°C 46.2°F7.9°C 57% Calm Calm -- 30.16 in1021.3 mb - 0.00 in0.0 mm 0.00 in0.0 mm
07:47 PM 61.2°F16.2°C 46.2°F7.9°C 58% Calm Calm -- 30.16 in1021.3 mb - 0.00 in0.0 mm 0.00 in0.0 mm
07:52 PM 60.8°F16.0°C 45.9°F7.7°C 58% Calm Calm -- 30.16 in1021.3 mb - 0.00 in0.0 mm 0.00 in0.0 mm
07:57 PM 60.3°F15.7°C 45.9°F7.7°C 59% Calm Calm -- 30.19 in1022.4 mb - 0.00 in0.0 mm 0.00 in0.0 mm
08:02 PM 59.7°F15.4°C 45.9°F7.7°C 60% Calm Calm -- 30.19 in1022.4 mb - 0.00 in0.0 mm 0.00 in0.0 mm
08:07 PM 59.4°F15.2°C 45.5°F7.5°C 60% Calm Calm -- 30.19 in1022.4 mb - 0.00 in0.0 mm 0.00 in0.0 mm
08:12 PM 59.0°F15.0°C 45.5°F7.5°C 61% Calm Calm -- 30.16 in1021.3 mb - 0.00 in0.0 mm 0.00 in0.0 mm
08:17 PM 58.8°F14.9°C 45.5°F7.5°C 61% Calm Calm 1.6 mph2.6 kmh 30.16 in1021.3 mb - 0.00 in0.0 mm 0.00 in0.0 mm
08:22 PM 58.6°F14.8°C 46.0°F7.8°C 63% Calm Calm -- 30.16 in1021.3 mb - 0.00 in0.0 mm 0.00 in0.0 mm
08:27 PM 58.5°F14.7°C 46.4°F8.0°C 64% Calm Calm 1.3 mph2.1 kmh 30.19 in1022.4 mb - 0.00 in0.0 mm 0.00 in0.0 mm
08:32 PM 58.3°F14.6°C 46.2°F7.9°C 64% 0.2 mph SSW0.3 kmh SSW 1.8 mph2.9 kmh 30.19 in1022.4 mb - 0.00 in0.0 mm 0.00 in0.0 mm
08:37 PM 58.1°F14.5°C 46.0°F7.8°C 64% Calm Calm -- 30.19 in1022.4 mb - 0.00 in0.0 mm 0.00 in0.0 mm
08:42 PM 57.7°F14.3°C 46.0°F7.8°C 65% Calm Calm -- 30.16 in1021.3 mb - 0.00 in0.0 mm 0.00 in0.0 mm
08:47 PM 57.6°F14.2°C 46.2°F7.9°C 66% Calm Calm -- 30.16 in1021.3 mb - 0.00 in0.0 mm 0.00 in0.0 mm
08:52 PM 57.4°F14.1°C 46.2°F7.9°C 66% Calm Calm -- 30.16 in1021.3 mb - 0.00 in0.0 mm 0.00 in0.0 mm
08:57 PM 57.2°F14.0°C 46.0°F7.8°C 66% Calm Calm -- 30.13 in1020.3 mb - 0.00 in0.0 mm 0.00 in0.0 mm
09:02 PM 57.0°F13.9°C 46.2°F7.9°C 67% Calm Calm -- 30.13 in1020.3 mb - 0.00 in0.0 mm 0.00 in0.0 mm
09:07 PM 56.8°F13.8°C 46.8°F8.2°C 69% Calm Calm -- 30.13 in1020.3 mb - 0.00 in0.0 mm 0.00 in0.0 mm
09:12 PM 56.8°F13.8°C 47.1°F8.4°C 70% 0.2 mph W0.3 kmh W 2.7 mph4.3 kmh 30.16 in1021.3 mb - 0.00 in0.0 mm 0.00 in0.0 mm
09:17 PM 56.7°F13.7°C 47.7°F8.7°C 72% 1.8 mph SW2.9 kmh SW 1.8 mph2.9 kmh 30.16 in1021.3 mb - 0.00 in0.0 mm 0.00 in0.0 mm
09:22 PM 56.5°F13.6°C 47.1°F8.4°C 71% 2.2 mph WSW3.5 kmh WSW 3.4 mph5.5 kmh 30.16 in1021.3 mb - 0.00 in0.0 mm 0.00 in0.0 mm
09:27 PM 56.3°F13.5°C 46.6°F8.1°C 70% 2.5 mph SW4.0 kmh SW 4.3 mph6.9 kmh 30.16 in1021.3 mb - 0.00 in0.0 mm 0.00 in0.0 mm
09:32 PM 56.1°F13.4°C 46.4°F8.0°C 70% 2.0 mph SW3.2 kmh SW 3.1 mph5.0 kmh 30.16 in1021.3 mb - 0.00 in0.0 mm 0.00 in0.0 mm
09:37 PM 55.9°F13.3°C 46.4°F8.0°C 70% 2.0 mph SW3.2 kmh SW 2.9 mph4.7 kmh 30.16 in1021.3 mb - 0.00 in0.0 mm 0.00 in0.0 mm
09:42 PM 55.8°F13.2°C 46.2°F7.9°C 70% 1.8 mph WSW2.9 kmh WSW 2.7 mph4.3 kmh 30.16 in1021.3 mb - 0.00 in0.0 mm 0.00 in0.0 mm
09:47 PM 55.6°F13.1°C 46.0°F7.8°C 70% 0.7 mph WSW1.1 kmh WSW 2.9 mph4.7 kmh 30.16 in1021.3 mb - 0.00 in0.0 mm 0.00 in0.0 mm
09:52 PM 55.4°F13.0°C 46.2°F7.9°C 71% 0.9 mph SW1.4 kmh SW 2.5 mph4.0 kmh 30.16 in1021.3 mb - 0.00 in0.0 mm 0.00 in0.0 mm
09:57 PM 55.0°F12.8°C 45.9°F7.7°C 71% Calm Calm -- 30.16 in1021.3 mb - 0.00 in0.0 mm 0.00 in0.0 mm
10:02 PM 54.9°F12.7°C 46.0°F7.8°C 72% 0.4 mph WSW0.6 kmh WSW 2.5 mph4.0 kmh 30.16 in1021.3 mb - 0.00 in0.0 mm 0.00 in0.0 mm
10:07 PM 54.7°F12.6°C 45.9°F7.7°C 72% 1.8 mph WSW2.9 kmh WSW 2.7 mph4.3 kmh 30.16 in1021.3 mb - 0.00 in0.0 mm 0.00 in0.0 mm
10:12 PM 54.7°F12.6°C 45.9°F7.7°C 72% 2.0 mph SW3.2 kmh SW 3.1 mph5.0 kmh 30.16 in1021.3 mb - 0.00 in0.0 mm 0.00 in0.0 mm
10:17 PM 54.5°F12.5°C 45.7°F7.6°C 72% 0.4 mph WSW0.6 kmh WSW 1.6 mph2.6 kmh 30.16 in1021.3 mb - 0.00 in0.0 mm 0.00 in0.0 mm
10:22 PM 54.3°F12.4°C 45.5°F7.5°C 72% Calm Calm -- 30.16 in1021.3 mb - 0.00 in0.0 mm 0.00 in0.0 mm
10:27 PM 54.1°F12.3°C 45.3°F7.4°C 72% Calm Calm -- 30.16 in1021.3 mb - 0.00 in0.0 mm 0.00 in0.0 mm
10:32 PM 53.8°F12.1°C 45.3°F7.4°C 73% Calm Calm -- 30.16 in1021.3 mb - 0.00 in0.0 mm 0.00 in0.0 mm
10:37 PM 53.6°F12.0°C 45.1°F7.3°C 73% Calm Calm -- 30.16 in1021.3 mb - 0.00 in0.0 mm 0.00 in0.0 mm
10:42 PM 53.4°F11.9°C 45.3°F7.4°C 74% Calm Calm -- 30.16 in1021.3 mb - 0.00 in0.0 mm 0.00 in0.0 mm
10:47 PM 53.4°F11.9°C 45.3°F7.4°C 74% Calm Calm -- 30.16 in1021.3 mb - 0.00 in0.0 mm 0.00 in0.0 mm
10:52 PM 53.4°F11.9°C 45.7°F7.6°C 75% 1.6 mph WSW2.6 kmh WSW 4.3 mph6.9 kmh 30.16 in1021.3 mb - 0.00 in0.0 mm 0.00 in0.0 mm
10:57 PM 53.4°F11.9°C 46.0°F7.8°C 76% 1.6 mph SW2.6 kmh SW 2.7 mph4.3 kmh 30.16 in1021.3 mb - 0.00 in0.0 mm 0.00 in0.0 mm
11:02 PM 53.2°F11.8°C 45.9°F7.7°C 76% 2.0 mph WSW3.2 kmh WSW 3.1 mph5.0 kmh 30.16 in1021.3 mb - 0.00 in0.0 mm 0.00 in0.0 mm
11:07 PM 53.4°F11.9°C 46.0°F7.8°C 76% 2.0 mph WSW3.2 kmh WSW 2.0 mph3.2 kmh 30.16 in1021.3 mb - 0.00 in0.0 mm 0.00 in0.0 mm
11:12 PM 53.6°F12.0°C 46.9°F8.3°C 78% 1.8 mph WSW2.9 kmh WSW 2.9 mph4.7 kmh 30.16 in1021.3 mb - 0.00 in0.0 mm 0.00 in0.0 mm
11:17 PM 53.6°F12.0°C 46.6°F8.1°C 77% 2.5 mph WSW4.0 kmh WSW 4.0 mph6.4 kmh 30.16 in1021.3 mb - 0.00 in0.0 mm 0.00 in0.0 mm
11:22 PM 53.6°F12.0°C 46.6°F8.1°C 77% 2.0 mph WSW3.2 kmh WSW 4.3 mph6.9 kmh 30.16 in1021.3 mb - 0.00 in0.0 mm 0.00 in0.0 mm
11:27 PM 53.6°F12.0°C 46.6°F8.1°C 77% 0.9 mph W1.4 kmh W 2.7 mph4.3 kmh 30.16 in1021.3 mb - 0.00 in0.0 mm 0.00 in0.0 mm
11:32 PM 53.2°F11.8°C 45.9°F7.7°C 76% 0.7 mph SW1.1 kmh SW 2.9 mph4.7 kmh 30.16 in1021.3 mb - 0.00 in0.0 mm 0.00 in0.0 mm
11:37 PM 53.2°F11.8°C 45.9°F7.7°C 76% Calm Calm -- 30.16 in1021.3 mb - 0.00 in0.0 mm 0.00 in0.0 mm
11:42 PM 53.2°F11.8°C 46.2°F7.9°C 77% Calm Calm -- 30.16 in1021.3 mb - 0.00 in0.0 mm 0.00 in0.0 mm
11:47 PM 53.2°F11.8°C 46.2°F7.9°C 77% Calm Calm -- 30.16 in1021.3 mb - 0.00 in0.0 mm 0.00 in0.0 mm
11:52 PM 53.2°F11.8°C 46.6°F8.1°C 78% Calm Calm -- 30.16 in1021.3 mb - 0.00 in0.0 mm 0.00 in0.0 mm
11:57 PM 53.4°F11.9°C 47.1°F8.4°C 79% Calm Calm -- 30.16 in1021.3 mb - 0.00 in0.0 mm 0.00 in0.0 mm